Time;durP1;ratioP1;P1;durP2;ratioP2;P2;SDS_P1;SDS_P2;PMS_P1;PMS_P2;Temp;Humidity;BMP_temperature;BMP_pressure;BME280_temperature;BME280_humidity;BME280_pressure;Samples;Min_cycle;Max_cycle;Signal;HPM_P1;HPM_P2
2022/02/22 00:02:07;;;;;;;;;;;;;;;15.59;55.41;100388.28;145002;783;1216;-89
2022/02/22 00:04:36;;;;;;;;;;;;;;;15.62;55.60;100382.16;145002;924;1016;-90
2022/02/22 00:07:08;;;;;;;;;;;;;;;15.56;55.43;100383.03;145002;920;1017;-90
2022/02/22 00:09:34;;;;;;;;;;;;;;;15.55;55.56;100379.53;145002;924;1016;-91
2022/02/22 00:12:01;;;;;;;;;;;;;;;15.58;55.55;100379.53;145002;920;1017;-92
2022/02/22 00:14:27;;;;;;;;;;;;;;;15.55;55.38;100373.44;145002;925;1016;-91
2022/02/22 00:16:55;;;;;;;;;;;;;;;15.34;56.09;100366.37;145002;920;1017;-89
2022/02/22 00:19:25;;;;;;;;;;;;;;;15.24;56.42;100362.84;145002;924;1016;-90
2022/02/22 00:21:52;;;;;;;;;;;;;;;15.05;56.58;100362.72;145002;920;1018;-89
2022/02/22 00:24:18;;;;;;;;;;;;;;;15.12;56.62;100349.69;145002;924;1018;-90
2022/02/22 00:26:44;;;;;;;;;;;;;;;15.05;57.16;100349.66;145002;916;1021;-90
2022/02/22 00:47:10;;;;;;;;;;;;;;;15.50;55.90;100331.56;145002;929;1016;-89
2022/02/22 00:49:37;;;;;;;;;;;;;;;15.38;56.31;100324.56;145002;924;1016;-90
2022/02/22 00:52:04;;;;;;;;;;;;;;;15.39;55.88;100328.03;145002;925;1017;-91
2022/02/22 00:54:36;;;;;;;;;;;;;;;15.44;56.10;100333.28;145002;924;1016;-90
2022/02/22 00:57:05;;;;;;;;;;;;;;;15.46;55.99;100313.22;145002;924;1016;-91
2022/02/22 01:09:45;;;;;;;;;;;;;;;15.22;56.39;100307.03;145003;931;1018;-91
2022/02/22 01:12:12;;;;;;;;;;;;;;;15.28;56.45;100316.66;145002;923;2000;-90
2022/02/22 01:14:41;;;;;;;;;;;;;;;15.32;56.41;100302.72;145003;927;1017;-91
2022/02/22 01:17:08;;;;;;;;;;;;;;;15.37;56.50;100301.00;145003;922;1016;-91
2022/02/22 01:19:34;;;;;;;;;;;;;;;15.40;56.59;100299.25;145003;927;1016;-90
2022/02/22 01:22:01;;;;;;;;;;;;;;;15.45;56.09;100296.66;145003;923;1015;-91
2022/02/22 01:32:12;;;;;;;;;;;;;;;15.43;56.62;100285.34;145002;660;1335;-91
2022/02/22 01:34:39;;;;;;;;;;;;;;;15.46;56.47;100285.31;145002;924;1016;-88
2022/02/22 01:37:05;;;;;;;;;;;;;;;15.49;56.72;100276.62;145002;921;1017;-92
2022/02/22 01:39:31;;;;;;;;;;;;;;;15.47;56.18;100267.91;145002;924;1016;-91
2022/02/22 01:41:57;;;;;;;;;;;;;;;15.37;56.21;100274.84;145002;916;1019;-90
2022/02/22 01:44:23;;;;;;;;;;;;;;;15.39;56.11;100278.34;145002;921;1017;-90
2022/02/22 01:46:57;;;;;;;;;;;;;;;15.31;56.16;100273.06;145002;920;1019;-91
2022/02/22 01:54:29;;;;;;;;;;;;;;;15.33;56.06;100275.69;145002;933;1016;-90
2022/02/22 01:56:55;;;;;;;;;;;;;;;15.37;55.81;100274.84;145002;919;1020;-90
2022/02/22 02:01:53;;;;;;;;;;;;;;;15.35;56.01;100271.34;145002;922;1019;-90
2022/02/22 02:04:20;;;;;;;;;;;;;;;15.39;56.07;100278.34;145002;925;1017;-91
2022/02/22 02:06:46;;;;;;;;;;;;;;;15.43;55.63;100277.50;145001;925;2000;-91
2022/02/22 02:09:13;;;;;;;;;;;;;;;15.46;55.83;100274.00;145002;924;1016;-91
2022/02/22 02:11:46;;;;;;;;;;;;;;;15.43;55.45;100274.87;145002;925;1018;-90
2022/02/22 02:14:12;;;;;;;;;;;;;;;15.22;56.16;100276.56;145002;925;1017;-91
2022/02/22 02:16:38;;;;;;;;;;;;;;;15.23;56.06;100278.28;145002;943;1016;-92
2022/02/22 02:19:04;;;;;;;;;;;;;;;15.22;56.04;100265.19;145002;925;1017;-90
2022/02/22 02:21:31;;;;;;;;;;;;;;;15.03;56.09;100269.47;145002;925;1017;-90
2022/02/22 02:24:10;;;;;;;;;;;;;;;14.92;51.49;100255.50;145002;925;1016;-91
2022/02/22 02:26:39;;;;;;;;;;;;;;;14.92;55.51;100261.63;145002;925;1020;-91
2022/02/22 02:29:11;;;;;;;;;;;;;;;14.98;54.84;100260.75;145002;928;1017;-91
2022/02/22 02:31:39;;;;;;;;;;;;;;;15.05;55.90;100262.53;145002;925;1016;-91
2022/02/22 02:34:06;;;;;;;;;;;;;;;15.14;55.87;100265.16;145002;925;1016;-89
2022/02/22 02:36:32;;;;;;;;;;;;;;;15.13;52.18;100263.44;145002;925;1017;-91
2022/02/22 02:38:59;;;;;;;;;;;;;;;15.12;55.57;100266.03;145002;924;1016;-90
2022/02/22 02:41:25;;;;;;;;;;;;;;;15.22;55.08;100275.66;145002;925;1016;-90
2022/02/22 02:43:51;;;;;;;;;;;;;;;15.19;52.73;100273.03;145002;925;1018;-91
2022/02/22 02:46:18;;;;;;;;;;;;;;;15.18;53.86;100271.31;145002;924;1020;-90
2022/02/22 02:48:44;;;;;;;;;;;;;;;15.30;55.01;100273.06;145002;925;1022;-90
2022/02/22 02:51:10;;;;;;;;;;;;;;;15.31;51.48;100269.59;145002;925;1021;-90
2022/02/22 02:53:36;;;;;;;;;;;;;;;15.23;54.38;100278.28;145002;924;1016;-91
2022/02/22 02:56:03;;;;;;;;;;;;;;;15.36;54.65;100275.72;145002;925;1017;-92
2022/02/22 02:58:30;;;;;;;;;;;;;;;15.32;54.17;100276.56;145002;925;1017;-92
2022/02/22 03:00:56;;;;;;;;;;;;;;;15.33;54.36;100276.56;145001;925;2000;-92
2022/02/22 03:03:22;;;;;;;;;;;;;;;15.40;54.66;100277.47;145002;921;1015;-90
2022/02/22 03:05:49;;;;;;;;;;;;;;;15.33;54.63;100267.84;145002;921;1016;-91
2022/02/22 03:08:18;;;;;;;;;;;;;;;15.33;53.84;100263.47;145002;925;1016;-89
2022/02/22 03:10:44;;;;;;;;;;;;;;;15.27;54.15;100253.03;145002;925;1018;-90
2022/02/22 03:21:14;;;;;;;;;;;;;;;15.55;53.47;100258.31;145002;929;1017;-91
2022/02/22 03:23:40;;;;;;;;;;;;;;;15.56;53.26;100258.31;145002;924;1018;-91
2022/02/22 03:26:06;;;;;;;;;;;;;;;15.62;52.91;100254.88;145002;921;1020;-91
2022/02/22 03:28:35;;;;;;;;;;;;;;;15.65;52.78;100249.59;145001;921;1998;-91
2022/02/22 03:38:43;;;;;;;;;;;;;;;15.69;52.13;100246.12;145002;931;1017;-89
2022/02/22 03:41:10;;;;;;;;;;;;;;;15.71;51.54;100244.37;145002;920;1017;-90
2022/02/22 03:43:36;;;;;;;;;;;;;;;15.71;51.98;100244.37;145002;925;1016;-91
2022/02/22 03:46:04;;;;;;;;;;;;;;;15.72;51.49;100240.03;145002;920;1018;-91
2022/02/22 03:48:30;;;;;;;;;;;;;;;15.72;51.07;100250.50;145002;924;1020;-92
2022/02/22 03:50:56;;;;;;;;;;;;;;;15.72;51.46;100250.50;145001;921;2000;-90
2022/02/22 03:53:22;;;;;;;;;;;;;;;15.69;51.18;100250.50;145002;924;1018;-91
2022/02/22 03:55:49;;;;;;;;;;;;;;;15.69;51.10;100245.28;145002;920;1019;-90
2022/02/22 03:58:15;;;;;;;;;;;;;;;15.69;51.07;100253.13;145002;925;1016;-90
2022/02/22 04:00:41;;;;;;;;;;;;;;;15.68;50.81;100254.84;145002;920;1018;-92
2022/02/22 04:03:09;;;;;;;;;;;;;;;15.68;50.81;100253.97;145001;925;2000;-89
2022/02/22 04:05:34;;;;;;;;;;;;;;;15.67;50.92;100249.59;145002;921;1017;-91
2022/02/22 04:08:01;;;;;;;;;;;;;;;15.67;50.57;100247.00;145002;920;1017;-91
2022/02/22 04:10:27;;;;;;;;;;;;;;;15.66;50.86;100240.91;145002;920;1016;-91
2022/02/22 04:12:56;;;;;;;;;;;;;;;15.65;50.53;100244.37;145002;921;1018;-91
2022/02/22 04:15:22;;;;;;;;;;;;;;;15.66;50.46;100250.50;145002;920;1016;-91
2022/02/22 04:17:48;;;;;;;;;;;;;;;15.64;50.29;100247.88;145002;924;1016;-91
2022/02/22 04:20:14;;;;;;;;;;;;;;;15.59;50.76;100249.63;145002;921;1016;-91
2022/02/22 04:22:40;;;;;;;;;;;;;;;15.59;50.79;100249.63;145001;924;2000;-90
2022/02/22 04:25:07;;;;;;;;;;;;;;;15.60;50.67;100254.84;145002;920;1020;-91
2022/02/22 04:27:36;;;;;;;;;;;;;;;15.60;50.56;100259.19;145002;925;1020;-90
2022/02/22 04:30:03;;;;;;;;;;;;;;;15.60;50.54;100261.81;145002;920;1019;-92
2022/02/22 04:32:29;;;;;;;;;;;;;;;15.60;50.51;100257.47;145002;924;1016;-91
2022/02/22 04:34:55;;;;;;;;;;;;;;;15.60;50.79;100260.09;145002;921;1017;-91
2022/02/22 04:37:21;;;;;;;;;;;;;;;15.60;50.65;100256.56;145001;920;2000;-91
2022/02/22 04:39:50;;;;;;;;;;;;;;;15.59;50.25;100242.62;145002;920;1017;-91
2022/02/22 04:42:18;;;;;;;;;;;;;;;15.57;50.36;100247.00;145002;925;1021;-92
2022/02/22 04:44:44;;;;;;;;;;;;;;;15.56;50.44;100250.47;145002;921;1021;-91
2022/02/22 04:47:12;;;;;;;;;;;;;;;15.54;50.47;100244.37;145002;920;1019;-89
2022/02/22 04:49:40;;;;;;;;;;;;;;;15.53;50.56;100241.75;145002;921;1016;-90
2022/02/22 04:52:08;;;;;;;;;;;;;;;15.52;50.60;100230.41;145002;925;1016;-91
2022/02/22 04:54:35;;;;;;;;;;;;;;;15.51;50.39;100233.00;145002;920;1017;-89
2022/02/22 04:57:03;;;;;;;;;;;;;;;15.50;50.50;100231.28;145002;925;1020;-91
2022/02/22 04:59:30;;;;;;;;;;;;;;;15.50;50.38;100229.53;145002;920;1016;-90
2022/02/22 05:07:37;;;;;;;;;;;;;;;15.51;50.43;100225.16;145002;931;1016;-90
2022/02/22 05:10:04;;;;;;;;;;;;;;;15.54;50.30;100220.84;145002;924;1018;-90
2022/02/22 05:12:31;;;;;;;;;;;;;;;15.52;50.37;100213.84;145002;925;1017;-90
2022/02/22 05:14:57;;;;;;;;;;;;;;;15.51;50.20;100215.59;145002;920;1018;-90
2022/02/22 05:17:23;;;;;;;;;;;;;;;15.50;50.25;100216.47;145002;920;1020;-91
2022/02/22 05:20:01;;;;;;;;;;;;;;;;;;;;;
2022/02/22 05:22:27;;;;;;;;;;;;;;;15.48;50.65;100215.59;145002;924;1022;-90
2022/02/22 05:24:54;;;;;;;;;;;;;;;15.45;50.54;100215.59;145002;920;1018;-86
2022/02/22 05:27:19;;;;;;;;;;;;;;;15.26;50.91;100212.06;145002;921;1019;-87
2022/02/22 05:29:46;;;;;;;;;;;;;;;15.08;50.84;100204.16;145002;916;1019;-87
2022/02/22 05:32:12;;;;;;;;;;;;;;;15.07;50.96;100200.69;145002;924;1021;-89
2022/02/22 05:34:38;;;;;;;;;;;;;;;15.05;50.89;100210.25;145002;920;1020;-88
2022/02/22 05:37:04;;;;;;;;;;;;;;;15.03;51.42;100205.03;145002;924;1022;-90
2022/02/22 05:39:30;;;;;;;;;;;;;;;15.01;51.20;100201.50;145001;916;1998;-88
2022/02/22 05:41:56;;;;;;;;;;;;;;;15.00;51.64;100196.28;145002;927;1021;-88
2022/02/22 05:44:22;;;;;;;;;;;;;;;15.03;51.57;100201.50;145002;918;1016;-86
2022/02/22 05:46:49;;;;;;;;;;;;;;;15.08;51.79;100198.91;145002;926;1018;-90
2022/02/22 05:49:15;;;;;;;;;;;;;;;15.15;51.37;100193.72;145002;461;1480;-89
2022/02/22 05:51:41;;;;;;;;;;;;;;;15.21;51.45;100203.34;145002;927;1019;-89
2022/02/22 05:54:07;;;;;;;;;;;;;;;15.23;51.68;100205.06;145002;918;1024;-83
2022/02/22 05:56:32;;;;;;;;;;;;;;;15.27;51.82;100192.91;145002;923;1020;-87
2022/02/22 05:59:02;;;;;;;;;;;;;;;15.34;51.69;100201.62;145002;918;1018;-88
2022/02/22 06:01:28;;;;;;;;;;;;;;;15.38;51.54;100209.47;145002;927;1016;-89
2022/02/22 06:03:54;;;;;;;;;;;;;;;15.36;51.52;100199.87;145002;923;1017;-88
2022/02/22 06:06:20;;;;;;;;;;;;;;;15.38;51.41;100211.19;145002;922;1021;-89
2022/02/22 06:08:50;;;;;;;;;;;;;;;15.34;51.60;100207.72;145002;923;1019;-89
2022/02/22 06:11:22;;;;;;;;;;;;;;;15.44;51.55;100205.97;145002;927;1018;-88
2022/02/22 06:13:50;;;;;;;;;;;;;;;15.50;51.46;100211.22;145002;923;1016;-88
2022/02/22 06:16:16;;;;;;;;;;;;;;;15.56;51.41;100208.62;145002;927;1019;-87
2022/02/22 06:18:46;;;;;;;;;;;;;;;15.59;51.80;100208.62;145002;923;1020;-87
2022/02/22 06:21:16;;;;;;;;;;;;;;;15.64;51.80;100205.12;145002;927;1017;-85
2022/02/22 06:23:43;;;;;;;;;;;;;;;15.67;51.26;100212.97;145002;923;1021;-85
2022/02/22 06:26:09;;;;;;;;;;;;;;;15.74;51.92;100204.28;145002;923;1017;-86
2022/02/22 06:28:35;;;;;;;;;;;;;;;15.76;51.37;100211.31;145002;923;1020;-87
2022/02/22 06:31:11;;;;;;;;;;;;;;;15.80;51.70;100213.91;145002;661;1425;-85
2022/02/22 06:33:42;;;;;;;;;;;;;;;15.92;51.94;100208.66;145002;491;1485;-87
2022/02/22 06:36:08;;;;;;;;;;;;;;;16.05;52.00;100205.19;145002;663;1367;-85
2022/02/22 06:38:34;;;;;;;;;;;;;;;16.15;52.09;100213.91;145002;920;1016;-85
2022/02/22 06:41:04;;;;;;;;;;;;;;;16.28;51.44;100210.37;145002;924;1020;-83
2022/02/22 06:43:30;;;;;;;;;;;;;;;16.35;51.66;100203.37;145002;925;1019;-86
2022/02/22 06:45:57;;;;;;;;;;;;;;;16.43;51.25;100206.87;145002;924;1020;-88
2022/02/22 06:48:24;;;;;;;;;;;;;;;16.53;51.18;100207.72;145001;924;2000;-84
2022/02/22 06:50:51;;;;;;;;;;;;;;;16.41;51.20;100211.22;145002;925;1016;-87
2022/02/22 06:58:24;;;;;;;;;;;;;;;16.03;50.70;100204.28;145002;493;1394;-86
2022/02/22 07:00:55;;;;;;;;;;;;;;;15.94;49.87;100199.94;145002;925;1016;-87
2022/02/22 07:03:20;;;;;;;;;;;;;;;15.65;51.74;100210.34;145002;920;1019;-88
2022/02/22 07:05:46;;;;;;;;;;;;;;;16.11;52.71;100215.66;145002;920;1018;-87
2022/02/22 07:08:12;;;;;;;;;;;;;;;15.70;57.14;100223.44;145002;916;1020;-88
2022/02/22 07:10:39;;;;;;;;;;;;;;;15.17;59.87;100219.87;145002;920;1020;-87
2022/02/22 07:13:04;;;;;;;;;;;;;;;15.13;60.49;100221.59;145002;920;1017;-87
2022/02/22 07:15:31;;;;;;;;;;;;;;;15.46;58.24;100214.69;145002;920;1020;-86
2022/02/22 07:17:59;;;;;;;;;;;;;;;15.60;57.94;100213.00;145002;920;1017;-86
2022/02/22 07:20:26;;;;;;;;;;;;;;;15.70;56.91;100210.37;145002;925;1019;-85
2022/02/22 07:22:52;;;;;;;;;;;;;;;15.63;57.16;100213.87;145002;922;1019;-90
2022/02/22 07:25:19;;;;;;;;;;;;;;;15.98;56.48;100211.28;145002;924;1017;-86
2022/02/22 07:27:46;;;;;;;;;;;;;;;16.20;55.59;100204.28;145002;920;1018;-86
2022/02/22 07:30:13;;;;;;;;;;;;;;;16.23;54.91;100199.03;145002;924;1018;-86
2022/02/22 07:32:40;;;;;;;;;;;;;;;16.27;55.38;100198.16;145002;920;1023;-87
2022/02/22 07:35:06;;;;;;;;;;;;;;;16.32;54.86;100200.75;145002;924;1020;-87
2022/02/22 07:37:33;;;;;;;;;;;;;;;16.52;53.94;100200.72;145002;920;1016;-86
2022/02/22 07:39:59;;;;;;;;;;;;;;;16.61;53.76;100200.69;145002;924;1018;-89
2022/02/22 07:42:25;;;;;;;;;;;;;;;16.64;53.27;100203.31;145002;920;1020;-87
2022/02/22 07:44:51;;;;;;;;;;;;;;;16.46;52.03;100195.50;145002;924;1016;-87
2022/02/22 07:47:17;;;;;;;;;;;;;;;16.67;52.47;100195.44;145001;920;2000;-86
2022/02/22 07:49:47;;;;;;;;;;;;;;;16.89;52.46;100202.38;145001;924;2000;-85
2022/02/22 07:52:14;;;;;;;;;;;;;;;17.10;52.44;100206.63;145002;920;1017;-86
2022/02/22 07:54:45;;;;;;;;;;;;;;;16.78;53.40;100205.88;145002;924;1018;-88
2022/02/22 07:57:13;;;;;;;;;;;;;;;16.94;53.60;100206.72;145002;920;1020;-85
2022/02/22 07:59:40;;;;;;;;;;;;;;;17.01;54.10;100210.19;145002;924;1017;-87
2022/02/22 08:02:09;;;;;;;;;;;;;;;16.82;54.36;100214.59;145002;920;1021;-89
2022/02/22 08:04:36;;;;;;;;;;;;;;;17.13;53.52;100215.38;145002;924;1017;-89
2022/02/22 08:07:03;;;;;;;;;;;;;;;16.57;52.65;100214.66;145002;920;1017;-88
2022/02/22 08:09:34;;;;;;;;;;;;;;;16.26;55.50;100221.75;145002;924;1016;-90
2022/02/22 08:12:00;;;;;;;;;;;;;;;16.29;56.06;100209.50;145001;922;2000;-88
2022/02/22 08:14:26;;;;;;;;;;;;;;;16.33;58.12;100206.00;145002;926;1016;-87
2022/02/22 08:16:57;;;;;;;;;;;;;;;16.05;58.41;100214.75;145002;922;1017;-87
2022/02/22 08:19:28;;;;;;;;;;;;;;;16.37;56.91;100199.03;145002;927;1017;-85
2022/02/22 08:22:12;;;;;;;;;;;;;;;16.55;55.90;100198.09;145002;922;1018;-84
2022/02/22 08:24:39;;;;;;;;;;;;;;;16.68;55.49;100204.16;145002;926;1017;-85
2022/02/22 08:27:14;;;;;;;;;;;;;;;16.64;55.84;100203.31;145002;922;1018;-89
2022/02/22 08:29:49;;;;;;;;;;;;;;;16.67;55.65;100208.53;145002;919;1018;-86
2022/02/22 08:32:15;;;;;;;;;;;;;;;17.20;55.02;100203.09;145002;922;1017;-90
2022/02/22 08:34:41;;;;;;;;;;;;;;;16.69;57.33;100205.91;145002;927;1017;-87
2022/02/22 08:37:09;;;;;;;;;;;;;;;16.44;59.42;100207.72;145002;922;1023;-88
2022/02/22 08:39:58;;;;;;;;;;;;;;;16.61;59.03;100205.94;145002;573;1505;-88
2022/02/22 08:45:14;;;;;;;;;;;;;;;16.53;59.25;100197.22;145002;584;1353;-87
2022/02/22 08:47:41;;;;;;;;;;;;;;;16.43;59.30;100192.87;145002;921;1019;-87
2022/02/22 08:50:08;;;;;;;;;;;;;;;16.63;58.32;100188.44;145002;920;1018;-88
2022/02/22 08:52:34;;;;;;;;;;;;;;;16.64;58.68;100194.59;145002;921;1017;-88
2022/02/22 08:55:00;;;;;;;;;;;;;;;17.25;57.32;100201.31;145001;921;2000;-88
2022/02/22 08:57:27;;;;;;;;;;;;;;;17.33;56.32;100193.41;145002;920;1020;-87
2022/02/22 08:59:53;;;;;;;;;;;;;;;17.38;56.39;100202.97;145002;921;1020;-85
2022/02/22 09:02:19;;;;;;;;;;;;;;;17.19;56.31;100198.72;145002;921;1018;-86
2022/02/22 09:04:45;;;;;;;;;;;;;;;17.12;53.52;100194.41;145002;921;1019;-87
2022/02/22 09:07:11;;;;;;;;;;;;;;;17.19;55.19;100189.09;145001;917;2000;-87
2022/02/22 09:09:37;;;;;;;;;;;;;;;17.07;55.15;100206.63;145002;917;1020;-88
2022/02/22 09:12:03;;;;;;;;;;;;;;;17.56;54.66;100195.84;145001;921;2000;-86
2022/02/22 09:14:31;;;;;;;;;;;;;;;17.57;53.61;100198.47;145002;921;1018;-88
2022/02/22 09:16:57;;;;;;;;;;;;;;;17.78;53.86;100193.94;145002;921;1016;-87
2022/02/22 09:19:23;;;;;;;;;;;;;;;17.94;53.13;100198.22;145002;916;1018;-89
2022/02/22 09:21:49;;;;;;;;;;;;;;;17.75;51.10;100199.19;145002;921;1018;-87
2022/02/22 09:24:18;;;;;;;;;;;;;;;17.83;52.37;100193.91;145002;921;1019;-87
2022/02/22 09:26:44;;;;;;;;;;;;;;;17.82;49.02;100197.44;145002;921;1019;-88
2022/02/22 09:29:10;;;;;;;;;;;;;;;17.59;51.31;100190.56;145002;921;1019;-88
2022/02/22 09:31:36;;;;;;;;;;;;;;;17.73;49.90;100178.22;145002;921;1017;-88
2022/02/22 09:34:06;;;;;;;;;;;;;;;17.91;49.91;100182.50;145002;921;1017;-87
2022/02/22 09:36:35;;;;;;;;;;;;;;;18.07;49.33;100169.19;145002;920;1019;-86
2022/02/22 09:39:01;;;;;;;;;;;;;;;17.95;46.51;100163.19;145002;921;1019;-87
2022/02/22 09:41:27;;;;;;;;;;;;;;;18.04;46.19;100164.88;145002;921;1016;-91
2022/02/22 09:43:53;;;;;;;;;;;;;;;18.28;47.37;100161.09;145002;921;1020;-86
2022/02/22 09:46:19;;;;;;;;;;;;;;;18.04;45.79;100166.59;145002;921;1020;-87
2022/02/22 09:48:45;;;;;;;;;;;;;;;17.84;44.61;100165.00;145002;922;1020;-88
2022/02/22 09:51:11;;;;;;;;;;;;;;;18.15;47.07;100162.13;145002;919;1018;-88
2022/02/22 09:53:39;;;;;;;;;;;;;;;18.12;46.01;100159.53;145002;917;1020;-89
2022/02/22 09:56:06;;;;;;;;;;;;;;;17.72;43.20;100158.13;145002;921;1020;-88
2022/02/22 09:58:33;;;;;;;;;;;;;;;18.08;46.18;100153.41;145002;922;1017;-84
2022/02/22 10:00:59;;;;;;;;;;;;;;;18.23;45.46;100151.53;145002;921;1017;-88
2022/02/22 10:06:04;;;;;;;;;;;;;;;18.14;41.94;100144.63;145002;616;1371;-88
2022/02/22 10:08:31;;;;;;;;;;;;;;;17.88;42.69;100150.13;145002;927;1017;-87
2022/02/22 10:11:04;;;;;;;;;;;;;;;18.02;44.39;100145.59;145001;923;2000;-86
2022/02/22 10:13:51;;;;;;;;;;;;;;;18.13;44.36;100149.03;145002;927;1018;-86
2022/02/22 10:16:18;;;;;;;;;;;;;;;18.05;43.66;100140.31;145002;919;1019;-87
2022/02/22 10:18:53;;;;;;;;;;;;;;;17.84;41.40;100144.00;145002;923;1019;-90
2022/02/22 10:21:20;;;;;;;;;;;;;;;18.01;41.60;100143.88;145002;919;1018;-89
2022/02/22 10:23:47;;;;;;;;;;;;;;;18.20;43.65;100133.16;145002;923;1018;-88
2022/02/22 10:26:26;;;;;;;;;;;;;;;18.00;43.80;100131.63;145002;919;1023;-88
2022/02/22 10:28:53;;;;;;;;;;;;;;;17.86;43.52;100123.84;145002;605;1392;-86
2022/02/22 10:31:46;;;;;;;;;;;;;;;17.92;43.91;100120.34;145002;700;1292;-86
2022/02/22 10:34:14;;;;;;;;;;;;;;;18.16;43.37;100113.94;145002;924;1021;-89
2022/02/22 10:36:41;;;;;;;;;;;;;;;18.08;41.29;100115.78;145002;916;1020;-90
2022/02/22 10:39:08;;;;;;;;;;;;;;;18.22;42.94;100113.03;145002;925;1019;-88
2022/02/22 10:41:38;;;;;;;;;;;;;;;18.10;42.39;100107.03;145002;920;1020;-88
2022/02/22 10:44:05;;;;;;;;;;;;;;;18.20;41.33;100099.00;145002;924;1017;-88
2022/02/22 10:46:32;;;;;;;;;;;;;;;18.19;41.19;100094.66;145002;921;1019;-88
2022/02/22 10:49:05;;;;;;;;;;;;;;;18.38;42.52;100095.31;145002;925;1017;-89
2022/02/22 10:51:33;;;;;;;;;;;;;;;18.36;42.00;100094.44;145002;920;1020;-88
2022/02/22 10:53:59;;;;;;;;;;;;;;;18.73;42.47;100094.00;145002;925;1017;-88
2022/02/22 10:56:25;;;;;;;;;;;;;;;18.80;41.98;100088.63;145002;917;1021;-87
2022/02/22 10:58:52;;;;;;;;;;;;;;;18.76;41.30;100080.81;145002;924;1018;-89
2022/02/22 11:01:19;;;;;;;;;;;;;;;18.70;39.59;100081.75;145002;921;1017;-88
2022/02/22 11:03:45;;;;;;;;;;;;;;;19.11;41.61;100079.44;145002;925;1018;-89
2022/02/22 11:06:12;;;;;;;;;;;;;;;18.88;40.62;100078.00;145002;920;1021;-88
2022/02/22 11:08:46;;;;;;;;;;;;;;;18.81;38.64;100071.94;145002;925;1017;-87
2022/02/22 11:11:33;;;;;;;;;;;;;;;18.89;38.86;100078.91;145002;653;1314;-89
2022/02/22 11:14:00;;;;;;;;;;;;;;;19.04;38.84;100081.28;145002;924;1023;-89
2022/02/22 11:16:26;;;;;;;;;;;;;;;19.44;39.25;100075.41;145002;921;1024;-88
2022/02/22 11:18:54;;;;;;;;;;;;;;;19.47;40.40;100077.09;145002;925;1022;-89
2022/02/22 11:21:22;;;;;;;;;;;;;;;19.23;40.50;100078.38;145002;920;1019;-86
2022/02/22 11:23:49;;;;;;;;;;;;;;;19.13;41.27;100075.88;145002;925;1019;-86
2022/02/22 11:26:22;;;;;;;;;;;;;;;19.24;41.40;100072.22;145002;920;1021;-88
2022/02/22 11:28:52;;;;;;;;;;;;;;;19.19;41.00;100067.03;145002;924;1018;-88
2022/02/22 11:31:19;;;;;;;;;;;;;;;19.37;40.69;100055.34;145001;921;2002;-88
2022/02/22 11:33:53;;;;;;;;;;;;;;;19.04;40.85;100052.34;145002;927;1020;-88
2022/02/22 11:36:30;;;;;;;;;;;;;;;19.08;41.12;100032.16;145002;922;1019;-87
2022/02/22 11:39:00;;;;;;;;;;;;;;;19.18;40.96;100029.34;145002;927;1021;-85
2022/02/22 11:41:27;;;;;;;;;;;;;;;19.06;41.25;100015.50;145002;922;1021;-84
2022/02/22 11:43:58;;;;;;;;;;;;;;;19.11;41.07;100006.66;145002;926;1018;-85
2022/02/22 11:46:41;;;;;;;;;;;;;;;18.96;41.58;100007.78;145002;922;1019;-90
2022/02/22 11:49:08;;;;;;;;;;;;;;;18.90;40.80;100005.25;145002;926;1017;-89
2022/02/22 11:51:42;;;;;;;;;;;;;;;18.75;40.79;100008.06;145002;922;1019;-89
2022/02/22 11:54:12;;;;;;;;;;;;;;;18.46;40.94;100007.59;145002;927;1021;-88
2022/02/22 11:56:39;;;;;;;;;;;;;;;18.29;41.59;99999.09;145002;922;1020;-89
2022/02/22 11:59:15;;;;;;;;;;;;;;;18.25;42.47;100006.13;145002;926;1018;-88
2022/02/22 12:01:44;;;;;;;;;;;;;;;18.26;42.86;100005.25;145002;922;1018;-87
2022/02/22 12:04:27;;;;;;;;;;;;;;;18.46;42.48;100009.38;145002;926;1017;-86
2022/02/22 12:06:56;;;;;;;;;;;;;;;18.25;42.61;100007.91;145002;922;1019;-87
2022/02/22 12:09:35;;;;;;;;;;;;;;;18.31;42.43;100002.56;145002;927;1019;-90
2022/02/22 12:12:06;;;;;;;;;;;;;;;18.17;42.83;100004.53;145002;922;1019;-89
2022/02/22 12:14:32;;;;;;;;;;;;;;;18.27;43.04;99996.47;145002;926;1016;-88
2022/02/22 12:16:59;;;;;;;;;;;;;;;18.51;42.80;99998.78;145002;919;1018;-88
2022/02/22 12:22:00;;;;;;;;;;;;;;;18.62;43.03;99992.47;145002;620;1376;-90
2022/02/22 12:24:29;;;;;;;;;;;;;;;18.65;42.91;99997.69;145002;927;1018;-89
2022/02/22 12:26:59;;;;;;;;;;;;;;;18.53;43.38;99995.22;145002;923;1017;-88
2022/02/22 12:29:25;;;;;;;;;;;;;;;18.39;43.68;99997.19;145002;927;1017;-88
2022/02/22 12:32:01;;;;;;;;;;;;;;;18.45;43.60;99992.75;145002;923;1017;-87
2022/02/22 12:34:30;;;;;;;;;;;;;;;18.23;42.97;99984.28;145002;926;1016;-86
2022/02/22 12:42:16;;;;;;;;;;;;;;;18.03;43.67;99991.56;145002;563;1404;-88
2022/02/22 12:44:43;;;;;;;;;;;;;;;18.35;44.05;99990.25;145002;659;1337;-90
2022/02/22 12:47:10;;;;;;;;;;;;;;;18.48;43.28;99982.19;145002;925;1018;-87
2022/02/22 12:49:47;;;;;;;;;;;;;;;18.37;43.29;99978.81;145002;924;1022;-88
2022/02/22 12:52:27;;;;;;;;;;;;;;;18.57;43.78;99985.56;145002;925;1018;-86
2022/02/22 12:55:23;;;;;;;;;;;;;;;18.37;42.04;99970.06;145002;925;1018;-88
2022/02/22 13:00:38;;;;;;;;;;;;;;;18.53;43.64;99970.72;145001;567;2000;-90
2022/02/22 13:03:12;;;;;;;;;;;;;;;18.72;43.24;99971.31;145002;921;1019;-88
2022/02/22 13:05:40;;;;;;;;;;;;;;;18.41;40.87;99959.50;145002;921;1016;-87
2022/02/22 13:08:21;;;;;;;;;;;;;;;18.67;42.36;99963.50;145002;921;1020;-87
2022/02/22 13:11:03;;;;;;;;;;;;;;;18.67;42.15;99963.50;145002;924;1020;-87
2022/02/22 13:13:30;;;;;;;;;;;;;;;18.71;42.07;99970.47;145002;923;1018;-89
2022/02/22 13:16:07;;;;;;;;;;;;;;;18.80;41.50;99966.78;145002;923;1020;-88
2022/02/22 13:18:33;;;;;;;;;;;;;;;18.29;41.22;99962.31;145002;923;1019;-90
2022/02/22 13:21:23;;;;;;;;;;;;;;;18.56;42.11;99968.06;145002;923;1016;-91
2022/02/22 13:23:51;;;;;;;;;;;;;;;18.72;41.71;99972.16;145002;923;1019;-87
2022/02/22 13:26:19;;;;;;;;;;;;;;;18.54;41.80;99968.06;145002;922;1018;-89
2022/02/22 13:28:45;;;;;;;;;;;;;;;18.40;40.90;99965.63;145002;923;1021;-90
2022/02/22 13:31:14;;;;;;;;;;;;;;;18.29;41.50;99973.69;145003;923;1019;-90
2022/02/22 13:33:40;;;;;;;;;;;;;;;18.25;41.78;99977.25;145003;924;1020;-89
2022/02/22 13:36:15;;;;;;;;;;;;;;;18.16;40.65;99971.25;145003;925;1018;-90
2022/02/22 13:38:58;;;;;;;;;;;;;;;17.96;41.72;99972.38;145003;925;1017;-87
2022/02/22 13:41:47;;;;;;;;;;;;;;;18.11;42.29;99972.16;145003;925;1021;-88
2022/02/22 13:44:13;;;;;;;;;;;;;;;17.91;42.96;99966.28;145003;920;1018;-92
2022/02/22 13:46:43;;;;;;;;;;;;;;;17.82;43.12;99975.12;145003;682;1305;-88
2022/02/22 13:49:10;;;;;;;;;;;;;;;17.89;44.13;99968.94;145003;922;1017;-89
2022/02/22 13:51:46;;;;;;;;;;;;;;;18.09;43.18;99960.81;145003;923;1020;-88
2022/02/22 13:54:19;;;;;;;;;;;;;;;18.09;43.64;99957.34;145003;923;1019;-90
2022/02/22 13:56:59;;;;;;;;;;;;;;;17.91;43.17;99955.78;145003;923;1017;-88
2022/02/22 13:59:34;;;;;;;;;;;;;;;18.08;43.50;99953.81;145002;923;1018;-88
2022/02/22 14:02:08;;;;;;;;;;;;;;;18.24;43.27;99957.09;145002;924;1019;-88
2022/02/22 14:04:37;;;;;;;;;;;;;;;18.11;42.41;99956.41;145002;922;1018;-89
2022/02/22 14:07:30;;;;;;;;;;;;;;;;;;;;;
2022/02/22 14:10:02;;;;;;;;;;;;;;;18.26;42.65;99957.09;145001;612;2000;-89
2022/02/22 14:12:28;;;;;;;;;;;;;;;18.07;41.98;99959.09;145002;925;1020;-90
2022/02/22 14:14:57;;;;;;;;;;;;;;;18.11;43.02;99969.53;145002;921;1018;-91
2022/02/22 14:17:23;;;;;;;;;;;;;;;18.11;43.26;99971.31;145002;925;1017;-90
2022/02/22 14:19:49;;;;;;;;;;;;;;;18.07;43.73;99973.13;145002;916;1018;-91
2022/02/22 14:22:20;;;;;;;;;;;;;;;17.83;46.50;99974.25;145002;917;1019;-91
2022/02/22 14:24:46;;;;;;;;;;;;;;;17.83;46.33;99989.12;145002;921;1019;-89